Terminal Aerodrome Forecast
Issued by NWS

Home | Current Version | Previous Version | Text Only | Print | Product List | Glossary On
Versions: 1 2 3 4 5 6 7 8 9 10 11 12 13 14 15 16 17 18 19 20 21 22 23 24 25 26 27
000
FTPA31 PHFO 131100
TAFOGG
TAF
PHOG 131120Z 1312/1412 06012KT P6SM BKN250
     FM131900 05015G25KT P6SM SCT050 BKN250
     FM132100 05018G28KT P6SM SCT050 BKN250
     FM140500 06012G22KT P6SM SCT050 BKN250
     FM140800 06012KT P6SM SCT050 BKN250
      AMD LTD TO WX VIS AND WIND TIL 131600=

USA.gov is the U.S. government's official web portal to all federal, state and local government web resources and services.